sensor_id;sensor_type;location;lat;lon;timestamp;P1;durP1;ratioP1;P2;durP2;ratioP2
15816;SDS011;8009;50.070;8.232;2022-08-19T00:01:07;12.98;;;11.75;;
15816;SDS011;8009;50.070;8.232;2022-08-19T00:03:38;13.23;;;12.10;;
15816;SDS011;8009;50.070;8.232;2022-08-19T00:06:07;13.07;;;11.88;;
15816;SDS011;8009;50.070;8.232;2022-08-19T00:08:53;13.95;;;12.68;;
15816;SDS011;8009;50.070;8.232;2022-08-19T00:11:27;13.18;;;12.07;;
15816;SDS011;8009;50.070;8.232;2022-08-19T00:13:57;13.60;;;12.40;;
15816;SDS011;8009;50.070;8.232;2022-08-19T00:16:29;14.75;;;13.40;;
15816;SDS011;8009;50.070;8.232;2022-08-19T00:19:01;14.70;;;12.85;;
15816;SDS011;8009;50.070;8.232;2022-08-19T00:21:31;13.73;;;12.43;;
15816;SDS011;8009;50.070;8.232;2022-08-19T00:24:07;12.38;;;11.07;;
15816;SDS011;8009;50.070;8.232;2022-08-19T00:26:38;13.35;;;12.07;;
15816;SDS011;8009;50.070;8.232;2022-08-19T00:29:09;13.07;;;11.88;;
15816;SDS011;8009;50.070;8.232;2022-08-19T00:31:46;14.98;;;13.60;;
15816;SDS011;8009;50.070;8.232;2022-08-19T00:35:06;14.02;;;12.65;;
15816;SDS011;8009;50.070;8.232;2022-08-19T00:37:38;14.18;;;12.75;;
15816;SDS011;8009;50.070;8.232;2022-08-19T00:40:13;13.27;;;11.98;;
15816;SDS011;8009;50.070;8.232;2022-08-19T00:42:47;13.68;;;12.52;;
15816;SDS011;8009;50.070;8.232;2022-08-19T00:45:21;15.10;;;13.80;;
15816;SDS011;8009;50.070;8.232;2022-08-19T00:47:51;14.20;;;12.82;;
15816;SDS011;8009;50.070;8.232;2022-08-19T00:50:21;14.52;;;13.23;;
15816;SDS011;8009;50.070;8.232;2022-08-19T00:52:58;14.30;;;13.07;;
15816;SDS011;8009;50.070;8.232;2022-08-19T00:55:32;14.45;;;12.95;;
15816;SDS011;8009;50.070;8.232;2022-08-19T00:58:02;13.32;;;12.10;;
15816;SDS011;8009;50.070;8.232;2022-08-19T01:00:34;13.30;;;12.18;;
15816;SDS011;8009;50.070;8.232;2022-08-19T01:03:07;13.50;;;12.32;;
15816;SDS011;8009;50.070;8.232;2022-08-19T01:05:37;14.23;;;12.93;;
15816;SDS011;8009;50.070;8.232;2022-08-19T01:08:23;12.93;;;11.82;;
15816;SDS011;8009;50.070;8.232;2022-08-19T01:11:00;13.07;;;11.88;;
15816;SDS011;8009;50.070;8.232;2022-08-19T01:13:30;13.65;;;12.45;;
15816;SDS011;8009;50.070;8.232;2022-08-19T01:16:08;12.55;;;11.45;;
15816;SDS011;8009;50.070;8.232;2022-08-19T01:18:42;13.60;;;12.43;;
15816;SDS011;8009;50.070;8.232;2022-08-19T01:21:16;13.65;;;12.35;;
15816;SDS011;8009;50.070;8.232;2022-08-19T01:23:55;12.80;;;11.60;;
15816;SDS011;8009;50.070;8.232;2022-08-19T01:26:25;12.85;;;11.48;;
15816;SDS011;8009;50.070;8.232;2022-08-19T01:28:56;13.68;;;12.27;;
15816;SDS011;8009;50.070;8.232;2022-08-19T01:31:28;11.07;;;10.07;;
15816;SDS011;8009;50.070;8.232;2022-08-19T01:34:00;11.43;;;10.43;;
15816;SDS011;8009;50.070;8.232;2022-08-19T01:36:32;12.90;;;11.70;;
15816;SDS011;8009;50.070;8.232;2022-08-19T01:39:06;13.02;;;11.15;;
15816;SDS011;8009;50.070;8.232;2022-08-19T01:41:39;12.93;;;11.82;;
15816;SDS011;8009;50.070;8.232;2022-08-19T01:44:20;14.27;;;12.77;;
15816;SDS011;8009;50.070;8.232;2022-08-19T01:46:50;15.50;;;14.00;;
15816;SDS011;8009;50.070;8.232;2022-08-19T01:49:21;15.73;;;13.20;;
15816;SDS011;8009;50.070;8.232;2022-08-19T01:51:52;14.70;;;13.40;;
15816;SDS011;8009;50.070;8.232;2022-08-19T01:54:26;14.10;;;12.70;;
15816;SDS011;8009;50.070;8.232;2022-08-19T01:56:57;14.32;;;13.13;;
15816;SDS011;8009;50.070;8.232;2022-08-19T01:59:34;14.30;;;13.00;;
15816;SDS011;8009;50.070;8.232;2022-08-19T02:02:04;13.93;;;12.63;;
15816;SDS011;8009;50.070;8.232;2022-08-19T02:04:34;14.27;;;12.88;;
15816;SDS011;8009;50.070;8.232;2022-08-19T02:07:05;13.25;;;12.13;;
15816;SDS011;8009;50.070;8.232;2022-08-19T02:09:38;13.82;;;12.63;;
15816;SDS011;8009;50.070;8.232;2022-08-19T02:12:07;13.63;;;12.40;;
15816;SDS011;8009;50.070;8.232;2022-08-19T02:14:36;12.70;;;11.50;;
15816;SDS011;8009;50.070;8.232;2022-08-19T02:17:06;11.65;;;10.65;;
15816;SDS011;8009;50.070;8.232;2022-08-19T02:19:37;13.43;;;12.13;;
15816;SDS011;8009;50.070;8.232;2022-08-19T02:22:06;12.68;;;11.55;;
15816;SDS011;8009;50.070;8.232;2022-08-19T02:24:40;12.80;;;11.70;;
15816;SDS011;8009;50.070;8.232;2022-08-19T02:27:10;12.07;;;11.07;;
15816;SDS011;8009;50.070;8.232;2022-08-19T02:29:40;10.90;;;9.95;;
15816;SDS011;8009;50.070;8.232;2022-08-19T02:32:09;10.55;;;9.70;;
15816;SDS011;8009;50.070;8.232;2022-08-19T02:34:40;13.88;;;11.82;;
15816;SDS011;8009;50.070;8.232;2022-08-19T02:37:14;11.38;;;10.38;;
15816;SDS011;8009;50.070;8.232;2022-08-19T02:40:00;10.52;;;9.65;;
15816;SDS011;8009;50.070;8.232;2022-08-19T02:42:29;12.50;;;11.40;;
15816;SDS011;8009;50.070;8.232;2022-08-19T02:44:58;12.88;;;11.57;;
15816;SDS011;8009;50.070;8.232;2022-08-19T02:47:28;11.57;;;10.60;;
15816;SDS011;8009;50.070;8.232;2022-08-19T02:49:57;11.30;;;10.40;;
15816;SDS011;8009;50.070;8.232;2022-08-19T02:55:16;12.63;;;11.52;;
15816;SDS011;8009;50.070;8.232;2022-08-19T02:57:57;12.52;;;11.48;;
15816;SDS011;8009;50.070;8.232;2022-08-19T03:00:27;12.95;;;11.85;;
15816;SDS011;8009;50.070;8.232;2022-08-19T03:02:56;13.60;;;12.30;;
15816;SDS011;8009;50.070;8.232;2022-08-19T03:05:25;11.88;;;10.93;;
15816;SDS011;8009;50.070;8.232;2022-08-19T03:07:57;12.38;;;11.27;;
15816;SDS011;8009;50.070;8.232;2022-08-19T03:10:52;11.77;;;10.88;;
15816;SDS011;8009;50.070;8.232;2022-08-19T03:13:32;11.90;;;10.80;;
15816;SDS011;8009;50.070;8.232;2022-08-19T03:16:04;12.10;;;10.93;;
15816;SDS011;8009;50.070;8.232;2022-08-19T03:18:33;12.23;;;11.07;;
15816;SDS011;8009;50.070;8.232;2022-08-19T03:21:04;12.23;;;11.13;;
15816;SDS011;8009;50.070;8.232;2022-08-19T03:23:33;12.77;;;11.60;;
15816;SDS011;8009;50.070;8.232;2022-08-19T03:26:07;13.70;;;12.50;;
15816;SDS011;8009;50.070;8.232;2022-08-19T03:28:35;12.15;;;11.10;;
15816;SDS011;8009;50.070;8.232;2022-08-19T03:31:18;12.40;;;11.25;;
15816;SDS011;8009;50.070;8.232;2022-08-19T03:34:18;12.82;;;11.65;;
15816;SDS011;8009;50.070;8.232;2022-08-19T03:36:52;12.45;;;11.40;;
15816;SDS011;8009;50.070;8.232;2022-08-19T03:39:44;12.65;;;11.60;;
15816;SDS011;8009;50.070;8.232;2022-08-19T03:45:19;13.18;;;11.98;;
15816;SDS011;8009;50.070;8.232;2022-08-19T03:48:13;11.90;;;10.90;;
15816;SDS011;8009;50.070;8.232;2022-08-19T03:50:46;13.75;;;12.60;;
15816;SDS011;8009;50.070;8.232;2022-08-19T03:53:23;13.50;;;12.40;;
15816;SDS011;8009;50.070;8.232;2022-08-19T03:56:06;12.43;;;11.25;;
15816;SDS011;8009;50.070;8.232;2022-08-19T04:01:41;12.48;;;11.40;;
15816;SDS011;8009;50.070;8.232;2022-08-19T04:04:12;12.70;;;11.45;;
15816;SDS011;8009;50.070;8.232;2022-08-19T04:06:41;12.88;;;11.60;;
15816;SDS011;8009;50.070;8.232;2022-08-19T04:09:14;12.65;;;11.50;;
15816;SDS011;8009;50.070;8.232;2022-08-19T04:11:45;13.65;;;12.45;;
15816;SDS011;8009;50.070;8.232;2022-08-19T04:14:18;12.57;;;11.35;;
15816;SDS011;8009;50.070;8.232;2022-08-19T04:16:49;12.60;;;11.55;;
15816;SDS011;8009;50.070;8.232;2022-08-19T04:19:19;12.75;;;11.57;;
15816;SDS011;8009;50.070;8.232;2022-08-19T04:21:50;13.68;;;12.30;;
15816;SDS011;8009;50.070;8.232;2022-08-19T04:24:28;12.73;;;11.52;;
15816;SDS011;8009;50.070;8.232;2022-08-19T04:29:43;13.30;;;12.07;;
15816;SDS011;8009;50.070;8.232;2022-08-19T04:32:19;12.25;;;11.13;;
15816;SDS011;8009;50.070;8.232;2022-08-19T04:34:50;13.43;;;12.23;;
15816;SDS011;8009;50.070;8.232;2022-08-19T04:37:21;11.82;;;10.82;;
15816;SDS011;8009;50.070;8.232;2022-08-19T04:39:51;13.75;;;12.50;;
15816;SDS011;8009;50.070;8.232;2022-08-19T04:42:32;12.68;;;11.43;;
15816;SDS011;8009;50.070;8.232;2022-08-19T04:45:11;13.05;;;11.75;;
15816;SDS011;8009;50.070;8.232;2022-08-19T04:47:43;13.73;;;11.40;;
15816;SDS011;8009;50.070;8.232;2022-08-19T04:50:20;11.30;;;10.40;;
15816;SDS011;8009;50.070;8.232;2022-08-19T04:52:49;12.23;;;11.23;;
15816;SDS011;8009;50.070;8.232;2022-08-19T04:55:20;12.25;;;11.18;;
15816;SDS011;8009;50.070;8.232;2022-08-19T04:57:55;11.90;;;10.80;;
15816;SDS011;8009;50.070;8.232;2022-08-19T05:00:36;11.27;;;10.15;;
15816;SDS011;8009;50.070;8.232;2022-08-19T05:03:06;11.70;;;10.68;;
15816;SDS011;8009;50.070;8.232;2022-08-19T05:05:37;12.15;;;11.00;;
15816;SDS011;8009;50.070;8.232;2022-08-19T05:08:07;11.80;;;10.68;;
15816;SDS011;8009;50.070;8.232;2022-08-19T05:10:36;11.90;;;10.38;;
15816;SDS011;8009;50.070;8.232;2022-08-19T05:13:08;10.95;;;9.95;;
15816;SDS011;8009;50.070;8.232;2022-08-19T05:15:39;12.63;;;10.95;;
15816;SDS011;8009;50.070;8.232;2022-08-19T05:18:11;11.02;;;10.13;;
15816;SDS011;8009;50.070;8.232;2022-08-19T05:20:53;11.93;;;10.93;;
15816;SDS011;8009;50.070;8.232;2022-08-19T05:23:37;11.27;;;10.20;;
15816;SDS011;8009;50.070;8.232;2022-08-19T05:26:09;13.05;;;10.88;;
15816;SDS011;8009;50.070;8.232;2022-08-19T05:28:38;11.35;;;10.18;;
15816;SDS011;8009;50.070;8.232;2022-08-19T05:31:13;12.87;;;11.67;;
15816;SDS011;8009;50.070;8.232;2022-08-19T05:33:41;11.32;;;10.18;;
15816;SDS011;8009;50.070;8.232;2022-08-19T05:36:09;12.43;;;11.40;;
15816;SDS011;8009;50.070;8.232;2022-08-19T05:38:38;11.75;;;10.57;;
15816;SDS011;8009;50.070;8.232;2022-08-19T05:41:07;11.82;;;10.73;;
15816;SDS011;8009;50.070;8.232;2022-08-19T05:43:38;11.98;;;10.38;;
15816;SDS011;8009;50.070;8.232;2022-08-19T05:46:18;11.18;;;10.15;;
15816;SDS011;8009;50.070;8.232;2022-08-19T05:48:59;11.27;;;9.98;;
15816;SDS011;8009;50.070;8.232;2022-08-19T05:51:30;11.55;;;10.45;;
15816;SDS011;8009;50.070;8.232;2022-08-19T05:53:59;10.50;;;9.50;;
15816;SDS011;8009;50.070;8.232;2022-08-19T05:56:29;10.90;;;9.88;;
15816;SDS011;8009;50.070;8.232;2022-08-19T05:59:02;13.38;;;10.30;;
15816;SDS011;8009;50.070;8.232;2022-08-19T06:01:44;14.15;;;11.05;;
15816;SDS011;8009;50.070;8.232;2022-08-19T06:04:17;10.10;;;9.10;;
15816;SDS011;8009;50.070;8.232;2022-08-19T06:06:48;11.75;;;10.02;;
15816;SDS011;8009;50.070;8.232;2022-08-19T06:09:26;11.10;;;10.10;;
15816;SDS011;8009;50.070;8.232;2022-08-19T06:12:07;9.95;;;9.05;;
15816;SDS011;8009;50.070;8.232;2022-08-19T06:14:35;13.88;;;9.45;;
15816;SDS011;8009;50.070;8.232;2022-08-19T06:17:10;12.85;;;10.18;;
15816;SDS011;8009;50.070;8.232;2022-08-19T06:19:38;12.43;;;9.70;;
15816;SDS011;8009;50.070;8.232;2022-08-19T06:22:09;9.77;;;8.38;;
15816;SDS011;8009;50.070;8.232;2022-08-19T06:24:47;10.35;;;9.38;;
15816;SDS011;8009;50.070;8.232;2022-08-19T06:27:19;9.50;;;8.65;;
15816;SDS011;8009;50.070;8.232;2022-08-19T06:29:48;10.18;;;9.18;;
15816;SDS011;8009;50.070;8.232;2022-08-19T06:32:20;9.95;;;9.05;;
15816;SDS011;8009;50.070;8.232;2022-08-19T06:34:56;9.95;;;8.93;;
15816;SDS011;8009;50.070;8.232;2022-08-19T06:37:26;9.57;;;8.73;;
15816;SDS011;8009;50.070;8.232;2022-08-19T06:39:56;9.32;;;8.50;;
15816;SDS011;8009;50.070;8.232;2022-08-19T06:42:25;11.40;;;8.88;;
15816;SDS011;8009;50.070;8.232;2022-08-19T06:44:59;10.63;;;9.15;;
15816;SDS011;8009;50.070;8.232;2022-08-19T06:47:33;8.43;;;7.72;;
15816;SDS011;8009;50.070;8.232;2022-08-19T06:50:04;9.82;;;8.98;;
15816;SDS011;8009;50.070;8.232;2022-08-19T06:52:34;9.40;;;8.60;;
15816;SDS011;8009;50.070;8.232;2022-08-19T06:55:04;12.48;;;8.85;;
15816;SDS011;8009;50.070;8.232;2022-08-19T06:57:33;9.43;;;8.45;;
15816;SDS011;8009;50.070;8.232;2022-08-19T07:00:08;9.40;;;8.48;;
15816;SDS011;8009;50.070;8.232;2022-08-19T07:05:53;9.02;;;8.13;;
15816;SDS011;8009;50.070;8.232;2022-08-19T07:08:25;8.65;;;7.82;;
15816;SDS011;8009;50.070;8.232;2022-08-19T07:10:54;15.02;;;9.10;;
15816;SDS011;8009;50.070;8.232;2022-08-19T07:13:35;11.88;;;9.05;;
15816;SDS011;8009;50.070;8.232;2022-08-19T07:16:05;8.32;;;7.45;;
15816;SDS011;8009;50.070;8.232;2022-08-19T07:18:35;8.75;;;7.55;;
15816;SDS011;8009;50.070;8.232;2022-08-19T07:21:08;12.38;;;7.95;;
15816;SDS011;8009;50.070;8.232;2022-08-19T07:23:39;8.25;;;7.55;;
15816;SDS011;8009;50.070;8.232;2022-08-19T07:26:15;8.00;;;7.35;;
15816;SDS011;8009;50.070;8.232;2022-08-19T07:28:46;8.25;;;7.47;;
15816;SDS011;8009;50.070;8.232;2022-08-19T07:31:17;8.30;;;7.40;;
15816;SDS011;8009;50.070;8.232;2022-08-19T07:33:47;8.48;;;7.88;;
15816;SDS011;8009;50.070;8.232;2022-08-19T07:36:21;10.48;;;8.55;;
15816;SDS011;8009;50.070;8.232;2022-08-19T07:39:05;10.75;;;7.97;;
15816;SDS011;8009;50.070;8.232;2022-08-19T07:41:36;8.45;;;7.57;;
15816;SDS011;8009;50.070;8.232;2022-08-19T07:44:14;11.07;;;8.65;;
15816;SDS011;8009;50.070;8.232;2022-08-19T07:46:49;8.52;;;7.70;;
15816;SDS011;8009;50.070;8.232;2022-08-19T07:49:26;7.70;;;7.10;;
15816;SDS011;8009;50.070;8.232;2022-08-19T07:52:00;60.00;;;13.20;;
15816;SDS011;8009;50.070;8.232;2022-08-19T07:54:31;7.82;;;6.88;;
15816;SDS011;8009;50.070;8.232;2022-08-19T07:57:13;9.52;;;8.63;;
15816;SDS011;8009;50.070;8.232;2022-08-19T07:59:54;11.70;;;9.43;;
15816;SDS011;8009;50.070;8.232;2022-08-19T08:02:23;8.52;;;7.68;;
15816;SDS011;8009;50.070;8.232;2022-08-19T08:04:52;8.98;;;8.25;;
15816;SDS011;8009;50.070;8.232;2022-08-19T08:07:47;8.90;;;8.20;;
15816;SDS011;8009;50.070;8.232;2022-08-19T08:10:28;8.50;;;7.70;;
15816;SDS011;8009;50.070;8.232;2022-08-19T08:12:57;7.53;;;6.82;;
15816;SDS011;8009;50.070;8.232;2022-08-19T08:15:26;9.45;;;7.63;;
15816;SDS011;8009;50.070;8.232;2022-08-19T08:17:54;12.68;;;11.35;;
15816;SDS011;8009;50.070;8.232;2022-08-19T08:20:23;13.20;;;11.95;;
15816;SDS011;8009;50.070;8.232;2022-08-19T08:23:08;11.63;;;10.43;;
15816;SDS011;8009;50.070;8.232;2022-08-19T08:25:52;9.05;;;8.23;;
15816;SDS011;8009;50.070;8.232;2022-08-19T08:28:43;11.80;;;10.57;;
15816;SDS011;8009;50.070;8.232;2022-08-19T08:31:28;8.65;;;7.95;;
15816;SDS011;8009;50.070;8.232;2022-08-19T08:33:59;9.88;;;8.98;;
15816;SDS011;8009;50.070;8.232;2022-08-19T08:36:30;8.45;;;7.75;;
15816;SDS011;8009;50.070;8.232;2022-08-19T08:39:19;10.80;;;9.90;;
15816;SDS011;8009;50.070;8.232;2022-08-19T08:41:51;14.65;;;13.23;;
15816;SDS011;8009;50.070;8.232;2022-08-19T08:44:28;12.73;;;11.52;;
15816;SDS011;8009;50.070;8.232;2022-08-19T08:47:09;12.18;;;10.90;;
15816;SDS011;8009;50.070;8.232;2022-08-19T08:49:43;11.68;;;10.55;;
15816;SDS011;8009;50.070;8.232;2022-08-19T08:52:18;9.90;;;8.90;;
15816;SDS011;8009;50.070;8.232;2022-08-19T08:54:55;10.82;;;9.85;;
15816;SDS011;8009;50.070;8.232;2022-08-19T08:57:27;9.93;;;8.98;;
15816;SDS011;8009;50.070;8.232;2022-08-19T09:00:04;7.55;;;6.95;;
15816;SDS011;8009;50.070;8.232;2022-08-19T09:02:38;10.63;;;9.65;;
15816;SDS011;8009;50.070;8.232;2022-08-19T09:05:07;9.35;;;8.45;;
15816;SDS011;8009;50.070;8.232;2022-08-19T09:07:39;9.75;;;8.85;;
15816;SDS011;8009;50.070;8.232;2022-08-19T09:13:06;8.88;;;8.18;;
15816;SDS011;8009;50.070;8.232;2022-08-19T09:15:40;10.18;;;9.25;;
15816;SDS011;8009;50.070;8.232;2022-08-19T09:18:28;10.98;;;9.77;;
15816;SDS011;8009;50.070;8.232;2022-08-19T09:21:08;7.65;;;7.05;;
15816;SDS011;8009;50.070;8.232;2022-08-19T09:23:38;7.72;;;7.22;;
15816;SDS011;8009;50.070;8.232;2022-08-19T09:26:13;12.85;;;11.70;;
15816;SDS011;8009;50.070;8.232;2022-08-19T09:28:54;10.88;;;10.07;;
15816;SDS011;8009;50.070;8.232;2022-08-19T09:31:24;9.88;;;8.98;;
15816;SDS011;8009;50.070;8.232;2022-08-19T09:34:08;11.30;;;10.38;;
15816;SDS011;8009;50.070;8.232;2022-08-19T09:36:38;10.00;;;9.00;;
15816;SDS011;8009;50.070;8.232;2022-08-19T09:39:07;9.00;;;8.32;;
15816;SDS011;8009;50.070;8.232;2022-08-19T09:41:41;11.57;;;10.63;;
15816;SDS011;8009;50.070;8.232;2022-08-19T09:44:09;11.02;;;9.02;;
15816;SDS011;8009;50.070;8.232;2022-08-19T09:46:40;9.43;;;8.73;;
15816;SDS011;8009;50.070;8.232;2022-08-19T09:49:11;9.80;;;8.90;;
15816;SDS011;8009;50.070;8.232;2022-08-19T09:51:40;9.93;;;9.02;;
15816;SDS011;8009;50.070;8.232;2022-08-19T09:54:13;8.55;;;7.85;;
15816;SDS011;8009;50.070;8.232;2022-08-19T09:56:45;7.75;;;7.18;;
15816;SDS011;8009;50.070;8.232;2022-08-19T09:59:16;9.23;;;8.52;;
15816;SDS011;8009;50.070;8.232;2022-08-19T10:01:45;8.02;;;7.43;;
15816;SDS011;8009;50.070;8.232;2022-08-19T10:04:27;7.22;;;6.63;;
15816;SDS011;8009;50.070;8.232;2022-08-19T10:07:16;6.45;;;6.05;;
15816;SDS011;8009;50.070;8.232;2022-08-19T10:09:45;7.03;;;6.53;;
15816;SDS011;8009;50.070;8.232;2022-08-19T10:12:18;6.70;;;6.30;;
15816;SDS011;8009;50.070;8.232;2022-08-19T10:14:47;8.70;;;7.95;;
15816;SDS011;8009;50.070;8.232;2022-08-19T10:17:16;7.70;;;6.90;;
15816;SDS011;8009;50.070;8.232;2022-08-19T10:19:45;10.18;;;7.70;;
15816;SDS011;8009;50.070;8.232;2022-08-19T10:22:13;9.75;;;6.97;;
15816;SDS011;8009;50.070;8.232;2022-08-19T10:24:47;14.27;;;7.63;;
15816;SDS011;8009;50.070;8.232;2022-08-19T10:27:21;6.00;;;5.60;;
15816;SDS011;8009;50.070;8.232;2022-08-19T10:29:56;7.53;;;6.93;;
15816;SDS011;8009;50.070;8.232;2022-08-19T10:32:28;7.53;;;6.70;;
15816;SDS011;8009;50.070;8.232;2022-08-19T10:34:57;6.93;;;6.43;;
15816;SDS011;8009;50.070;8.232;2022-08-19T10:37:26;6.63;;;6.13;;
15816;SDS011;8009;50.070;8.232;2022-08-19T10:39:57;6.28;;;5.68;;
15816;SDS011;8009;50.070;8.232;2022-08-19T10:42:31;7.57;;;6.78;;
15816;SDS011;8009;50.070;8.232;2022-08-19T10:45:00;6.18;;;5.63;;
15816;SDS011;8009;50.070;8.232;2022-08-19T10:47:28;13.60;;;7.15;;
15816;SDS011;8009;50.070;8.232;2022-08-19T10:49:57;6.90;;;6.13;;
15816;SDS011;8009;50.070;8.232;2022-08-19T10:52:39;6.50;;;6.00;;
15816;SDS011;8009;50.070;8.232;2022-08-19T10:55:12;6.90;;;6.25;;
15816;SDS011;8009;50.070;8.232;2022-08-19T10:57:57;7.57;;;6.95;;
15816;SDS011;8009;50.070;8.232;2022-08-19T11:00:26;5.93;;;5.43;;
15816;SDS011;8009;50.070;8.232;2022-08-19T11:02:55;6.38;;;5.97;;
15816;SDS011;8009;50.070;8.232;2022-08-19T11:05:24;6.03;;;5.43;;
15816;SDS011;8009;50.070;8.232;2022-08-19T11:07:53;6.57;;;5.95;;
15816;SDS011;8009;50.070;8.232;2022-08-19T11:10:43;6.40;;;5.90;;
15816;SDS011;8009;50.070;8.232;2022-08-19T11:13:14;6.10;;;5.60;;
15816;SDS011;8009;50.070;8.232;2022-08-19T11:15:43;7.10;;;6.60;;
15816;SDS011;8009;50.070;8.232;2022-08-19T11:18:15;6.45;;;5.95;;
15816;SDS011;8009;50.070;8.232;2022-08-19T11:20:44;6.72;;;6.13;;
15816;SDS011;8009;50.070;8.232;2022-08-19T11:23:17;6.10;;;5.55;;
15816;SDS011;8009;50.070;8.232;2022-08-19T11:25:50;6.32;;;5.93;;
15816;SDS011;8009;50.070;8.232;2022-08-19T11:28:21;5.65;;;5.28;;
15816;SDS011;8009;50.070;8.232;2022-08-19T11:30:53;6.50;;;6.00;;
15816;SDS011;8009;50.070;8.232;2022-08-19T11:33:22;5.90;;;5.50;;
15816;SDS011;8009;50.070;8.232;2022-08-19T11:35:53;6.40;;;5.90;;
15816;SDS011;8009;50.070;8.232;2022-08-19T11:38:23;6.07;;;5.57;;
15816;SDS011;8009;50.070;8.232;2022-08-19T11:40:55;5.85;;;5.45;;
15816;SDS011;8009;50.070;8.232;2022-08-19T11:43:27;5.40;;;5.00;;
15816;SDS011;8009;50.070;8.232;2022-08-19T11:45:56;5.85;;;5.38;;
15816;SDS011;8009;50.070;8.232;2022-08-19T11:48:35;5.60;;;5.20;;
15816;SDS011;8009;50.070;8.232;2022-08-19T11:51:06;9.02;;;5.60;;
15816;SDS011;8009;50.070;8.232;2022-08-19T11:53:39;5.45;;;5.05;;
15816;SDS011;8009;50.070;8.232;2022-08-19T11:56:17;5.43;;;5.00;;
15816;SDS011;8009;50.070;8.232;2022-08-19T12:02:00;5.45;;;5.15;;
15816;SDS011;8009;50.070;8.232;2022-08-19T12:04:30;5.70;;;5.20;;
15816;SDS011;8009;50.070;8.232;2022-08-19T12:06:58;5.88;;;5.47;;
15816;SDS011;8009;50.070;8.232;2022-08-19T12:09:27;5.45;;;5.03;;
15816;SDS011;8009;50.070;8.232;2022-08-19T12:11:59;6.18;;;5.78;;
15816;SDS011;8009;50.070;8.232;2022-08-19T12:14:30;5.68;;;5.28;;
15816;SDS011;8009;50.070;8.232;2022-08-19T12:17:03;6.07;;;5.22;;
15816;SDS011;8009;50.070;8.232;2022-08-19T12:19:46;6.00;;;5.60;;
15816;SDS011;8009;50.070;8.232;2022-08-19T12:22:15;6.07;;;5.68;;
15816;SDS011;8009;50.070;8.232;2022-08-19T12:24:44;6.32;;;5.93;;
15816;SDS011;8009;50.070;8.232;2022-08-19T12:27:27;5.43;;;5.07;;
15816;SDS011;8009;50.070;8.232;2022-08-19T12:29:58;6.13;;;5.60;;
15816;SDS011;8009;50.070;8.232;2022-08-19T12:32:32;5.15;;;4.85;;
15816;SDS011;8009;50.070;8.232;2022-08-19T12:35:01;5.95;;;5.45;;
15816;SDS011;8009;50.070;8.232;2022-08-19T12:37:35;5.20;;;4.88;;
15816;SDS011;8009;50.070;8.232;2022-08-19T12:40:15;5.68;;;5.18;;
15816;SDS011;8009;50.070;8.232;2022-08-19T12:42:45;6.25;;;5.85;;
15816;SDS011;8009;50.070;8.232;2022-08-19T12:45:16;6.18;;;5.78;;
15816;SDS011;8009;50.070;8.232;2022-08-19T12:47:47;6.32;;;5.93;;
15816;SDS011;8009;50.070;8.232;2022-08-19T12:50:18;6.07;;;5.47;;
15816;SDS011;8009;50.070;8.232;2022-08-19T12:52:47;6.05;;;5.65;;
15816;SDS011;8009;50.070;8.232;2022-08-19T12:55:18;5.72;;;5.43;;
15816;SDS011;8009;50.070;8.232;2022-08-19T12:57:47;5.53;;;5.18;;
15816;SDS011;8009;50.070;8.232;2022-08-19T13:00:16;5.32;;;5.03;;
15816;SDS011;8009;50.070;8.232;2022-08-19T13:02:51;5.97;;;5.47;;
15816;SDS011;8009;50.070;8.232;2022-08-19T13:05:21;6.00;;;5.43;;
15816;SDS011;8009;50.070;8.232;2022-08-19T13:07:52;5.90;;;5.50;;
15816;SDS011;8009;50.070;8.232;2022-08-19T13:10:26;5.85;;;5.35;;
15816;SDS011;8009;50.070;8.232;2022-08-19T13:13:00;5.78;;;5.38;;
15816;SDS011;8009;50.070;8.232;2022-08-19T13:15:33;5.30;;;4.97;;
15816;SDS011;8009;50.070;8.232;2022-08-19T13:18:17;9.48;;;5.65;;
15816;SDS011;8009;50.070;8.232;2022-08-19T13:21:03;9.10;;;5.40;;
15816;SDS011;8009;50.070;8.232;2022-08-19T13:23:34;5.50;;;5.07;;
15816;SDS011;8009;50.070;8.232;2022-08-19T13:26:06;5.65;;;5.25;;
15816;SDS011;8009;50.070;8.232;2022-08-19T13:28:36;5.85;;;5.45;;
15816;SDS011;8009;50.070;8.232;2022-08-19T13:31:23;6.35;;;5.85;;
15816;SDS011;8009;50.070;8.232;2022-08-19T13:34:12;5.85;;;5.45;;
15816;SDS011;8009;50.070;8.232;2022-08-19T13:36:42;6.95;;;6.25;;
15816;SDS011;8009;50.070;8.232;2022-08-19T13:39:10;5.60;;;5.20;;
15816;SDS011;8009;50.070;8.232;2022-08-19T13:41:43;6.35;;;5.85;;
15816;SDS011;8009;50.070;8.232;2022-08-19T13:44:16;6.20;;;5.60;;
15816;SDS011;8009;50.070;8.232;2022-08-19T13:46:46;5.82;;;5.43;;
15816;SDS011;8009;50.070;8.232;2022-08-19T13:49:21;6.20;;;5.70;;
15816;SDS011;8009;50.070;8.232;2022-08-19T13:51:50;6.63;;;6.05;;
15816;SDS011;8009;50.070;8.232;2022-08-19T13:54:21;6.03;;;5.63;;
15816;SDS011;8009;50.070;8.232;2022-08-19T13:56:50;10.00;;;5.53;;
15816;SDS011;8009;50.070;8.232;2022-08-19T13:59:18;5.35;;;4.85;;
15816;SDS011;8009;50.070;8.232;2022-08-19T14:01:47;8.25;;;5.25;;
15816;SDS011;8009;50.070;8.232;2022-08-19T14:04:18;5.70;;;5.30;;
15816;SDS011;8009;50.070;8.232;2022-08-19T14:06:52;6.28;;;5.78;;
15816;SDS011;8009;50.070;8.232;2022-08-19T14:09:21;5.70;;;5.30;;
15816;SDS011;8009;50.070;8.232;2022-08-19T14:11:52;6.07;;;5.68;;
15816;SDS011;8009;50.070;8.232;2022-08-19T14:14:20;5.82;;;5.43;;
15816;SDS011;8009;50.070;8.232;2022-08-19T14:16:57;6.20;;;5.80;;
15816;SDS011;8009;50.070;8.232;2022-08-19T14:19:29;6.22;;;5.75;;
15816;SDS011;8009;50.070;8.232;2022-08-19T14:21:58;6.63;;;5.40;;
15816;SDS011;8009;50.070;8.232;2022-08-19T14:24:27;5.85;;;5.38;;
15816;SDS011;8009;50.070;8.232;2022-08-19T14:26:57;6.05;;;5.65;;
15816;SDS011;8009;50.070;8.232;2022-08-19T14:29:26;5.07;;;4.78;;
15816;SDS011;8009;50.070;8.232;2022-08-19T14:31:55;6.15;;;5.75;;
15816;SDS011;8009;50.070;8.232;2022-08-19T14:34:29;5.70;;;5.30;;
15816;SDS011;8009;50.070;8.232;2022-08-19T14:37:02;5.63;;;5.20;;
15816;SDS011;8009;50.070;8.232;2022-08-19T14:39:31;5.13;;;4.72;;
15816;SDS011;8009;50.070;8.232;2022-08-19T14:41:59;6.18;;;5.35;;
15816;SDS011;8009;50.070;8.232;2022-08-19T14:44:28;5.30;;;5.00;;
15816;SDS011;8009;50.070;8.232;2022-08-19T14:47:01;5.47;;;5.07;;
15816;SDS011;8009;50.070;8.232;2022-08-19T14:49:33;5.43;;;4.93;;
15816;SDS011;8009;50.070;8.232;2022-08-19T14:52:03;5.60;;;5.05;;
15816;SDS011;8009;50.070;8.232;2022-08-19T14:54:34;5.30;;;4.90;;
15816;SDS011;8009;50.070;8.232;2022-08-19T14:57:02;5.55;;;5.15;;
15816;SDS011;8009;50.070;8.232;2022-08-19T14:59:31;5.25;;;4.85;;
15816;SDS011;8009;50.070;8.232;2022-08-19T15:01:59;5.60;;;5.20;;
15816;SDS011;8009;50.070;8.232;2022-08-19T15:04:28;5.63;;;5.32;;
15816;SDS011;8009;50.070;8.232;2022-08-19T15:07:00;5.10;;;4.80;;
15816;SDS011;8009;50.070;8.232;2022-08-19T15:09:29;5.88;;;5.38;;
15816;SDS011;8009;50.070;8.232;2022-08-19T15:11:58;6.25;;;4.95;;
15816;SDS011;8009;50.070;8.232;2022-08-19T15:14:28;5.35;;;4.97;;
15816;SDS011;8009;50.070;8.232;2022-08-19T15:16:59;7.75;;;4.80;;
15816;SDS011;8009;50.070;8.232;2022-08-19T15:19:28;5.82;;;5.25;;
15816;SDS011;8009;50.070;8.232;2022-08-19T15:22:00;5.10;;;4.70;;
15816;SDS011;8009;50.070;8.232;2022-08-19T15:24:29;4.95;;;4.65;;
15816;SDS011;8009;50.070;8.232;2022-08-19T15:26:58;5.00;;;4.70;;
15816;SDS011;8009;50.070;8.232;2022-08-19T15:29:26;5.25;;;4.85;;
15816;SDS011;8009;50.070;8.232;2022-08-19T15:31:55;5.93;;;5.38;;
15816;SDS011;8009;50.070;8.232;2022-08-19T15:34:23;5.18;;;4.78;;
15816;SDS011;8009;50.070;8.232;2022-08-19T15:36:57;6.35;;;5.43;;
15816;SDS011;8009;50.070;8.232;2022-08-19T15:39:52;10.90;;;5.93;;
15816;SDS011;8009;50.070;8.232;2022-08-19T15:45:08;5.70;;;5.30;;
15816;SDS011;8009;50.070;8.232;2022-08-19T15:47:37;5.90;;;5.50;;